createdAt,value
2023-05-01T00:01:33.620Z,43.29
2023-05-01T00:04:03.907Z,43.14
2023-05-01T00:06:36.717Z,43.11
2023-05-01T00:09:07.375Z,43.02
2023-05-01T00:11:38.643Z,43.01
2023-05-01T00:14:08.731Z,43.14
2023-05-01T00:16:39.072Z,43.05
2023-05-01T00:19:09.309Z,43.24
2023-05-01T00:21:42.668Z,43.28
2023-05-01T00:24:12.855Z,43.24
2023-05-01T00:26:42.983Z,43.43
2023-05-01T00:29:13.195Z,43.59
2023-05-01T00:31:44.734Z,43.51
2023-05-01T00:34:14.832Z,43.81
2023-05-01T00:36:49.325Z,44.08
2023-05-01T00:39:20.104Z,44.04
2023-05-01T00:41:50.196Z,43.97
2023-05-01T00:44:20.423Z,43.89
2023-05-01T00:46:50.560Z,43.89
2023-05-01T00:49:20.645Z,43.80
2023-05-01T00:51:55.852Z,43.99
2023-05-01T00:54:27.817Z,44.11
2023-05-01T00:56:58.561Z,44.02
2023-05-01T00:59:29.267Z,44.26
2023-05-01T01:01:59.318Z,44.44
2023-05-01T01:04:32.453Z,44.55
2023-05-01T01:07:11.584Z,44.58
2023-05-01T01:09:51.614Z,44.51
2023-05-01T01:12:27.869Z,44.63
2023-05-01T01:15:05.736Z,44.95
2023-05-01T01:17:55.657Z,44.79
2023-05-01T01:20:34.444Z,44.95
2023-05-01T01:23:31.500Z,44.82
2023-05-01T01:26:38.771Z,44.73
2023-05-01T01:29:42.326Z,45.14
2023-05-01T01:32:33.890Z,45.29
2023-05-01T01:35:10.437Z,45.29
2023-05-01T01:37:46.843Z,45.65
2023-05-01T01:40:20.118Z,45.61
2023-05-01T01:42:59.429Z,45.72
2023-05-01T01:45:37.483Z,45.72
2023-05-01T01:48:10.530Z,45.91
2023-05-01T01:50:45.258Z,46.24
2023-05-01T01:53:18.898Z,46.13
2023-05-01T01:55:51.016Z,46.13
2023-05-01T01:58:26.321Z,46.40
2023-05-01T02:00:58.283Z,46.29
2023-05-01T02:03:29.528Z,46.35
2023-05-01T02:06:04.015Z,46.43
2023-05-01T02:08:37.063Z,46.39
2023-05-01T02:11:09.157Z,46.44
2023-05-01T02:13:42.118Z,46.36
2023-05-01T02:16:12.802Z,46.34
2023-05-01T02:18:43.827Z,46.14
2023-05-01T02:21:18.642Z,46.32
2023-05-01T02:23:48.756Z,46.08
2023-05-01T02:26:21.098Z,46.40
2023-05-01T02:28:51.170Z,46.34
2023-05-01T02:31:21.835Z,46.50
2023-05-01T02:33:52.065Z,46.41
2023-05-01T02:36:25.274Z,46.67
2023-05-01T02:38:55.537Z,46.56
2023-05-01T02:41:26.321Z,46.53
2023-05-01T02:44:01.528Z,46.80
2023-05-01T02:46:33.833Z,46.76
2023-05-01T02:49:06.288Z,46.73
2023-05-01T02:51:40.186Z,46.94
2023-05-01T02:54:11.295Z,47.01
2023-05-01T02:56:42.556Z,47.11
2023-05-01T02:59:13.049Z,46.94
2023-05-01T03:01:43.213Z,47.15
2023-05-01T03:04:13.331Z,47.07
2023-05-01T03:06:46.142Z,47.27
2023-05-01T03:09:16.394Z,47.22
2023-05-01T03:11:46.819Z,47.43
2023-05-01T03:14:17.075Z,47.17
2023-05-01T03:16:47.413Z,47.32
2023-05-01T03:19:17.678Z,47.21
2023-05-01T03:21:50.332Z,47.22
2023-05-01T03:24:20.318Z,47.32
2023-05-01T03:26:50.313Z,47.47
2023-05-01T03:35:35.737Z,47.44
2023-05-01T03:38:10.805Z,47.50
2023-05-01T03:41:05.275Z,47.43
2023-05-01T03:44:01.758Z,47.40
2023-05-01T03:46:38.529Z,47.17
2023-05-01T03:49:10.908Z,47.29
2023-05-01T03:51:47.929Z,47.41
2023-05-01T03:54:20.605Z,47.18
2023-05-01T03:57:12.123Z,47.06
2023-05-01T03:59:43.987Z,46.73
2023-05-01T04:02:15.457Z,46.73
2023-05-01T04:04:47.606Z,46.65
2023-05-01T04:07:18.309Z,46.63
2023-05-01T04:09:54.106Z,46.37
2023-05-01T04:12:24.255Z,46.10
2023-05-01T04:14:54.306Z,45.97
2023-05-01T04:17:26.849Z,45.44
2023-05-01T04:19:57.955Z,45.11
2023-05-01T04:22:28.567Z,44.63
2023-05-01T04:25:01.309Z,44.47
2023-05-01T04:27:32.445Z,43.87
2023-05-01T04:30:03.877Z,43.68
2023-05-01T04:32:35.789Z,43.21
2023-05-01T04:35:07.338Z,42.68
2023-05-01T04:37:38.473Z,42.73
2023-05-01T04:40:12.544Z,42.35
2023-05-01T04:42:43.633Z,42.15
2023-05-01T04:45:16.864Z,41.53
2023-05-01T04:47:47.455Z,41.43
2023-05-01T04:50:17.534Z,40.97
2023-05-01T04:52:47.655Z,41.12
2023-05-01T04:55:20.451Z,40.70
2023-05-01T04:58:16.387Z,40.49
2023-05-01T05:00:48.113Z,39.60
2023-05-01T05:03:23.970Z,39.96
2023-05-01T05:05:54.103Z,40.15
2023-05-01T05:08:24.129Z,39.93
2023-05-01T05:11:04.319Z,39.90
2023-05-01T05:13:57.116Z,39.58
2023-05-01T05:16:27.346Z,39.46
2023-05-01T05:18:59.082Z,39.14
2023-05-01T05:21:31.820Z,38.76
2023-05-01T05:24:03.065Z,38.16
2023-05-01T05:26:35.805Z,37.55
2023-05-01T05:29:09.768Z,37.39
2023-05-01T05:31:42.355Z,37.15
2023-05-01T05:34:24.818Z,37.09
2023-05-01T05:36:58.942Z,36.09
2023-05-01T05:39:33.077Z,35.92
2023-05-01T05:42:16.157Z,35.42
2023-05-01T05:44:54.081Z,35.01
2023-05-01T05:47:24.133Z,34.92
2023-05-01T05:49:55.884Z,35.12
2023-05-01T05:52:42.454Z,33.84
2023-05-01T05:55:15.929Z,33.82
2023-05-01T05:58:04.363Z,33.80
2023-05-01T06:00:54.849Z,33.94
2023-05-01T06:03:45.266Z,33.39
2023-05-01T06:06:34.837Z,32.94
2023-05-01T06:09:04.979Z,32.44
2023-05-01T06:11:35.041Z,32.21
2023-05-01T06:14:10.237Z,32.15
2023-05-01T06:16:45.335Z,30.57
2023-05-01T06:19:16.191Z,31.54
2023-05-01T06:21:50.182Z,30.91
2023-05-01T06:24:41.263Z,31.35
2023-05-01T06:27:25.767Z,30.65
2023-05-01T06:30:31.207Z,29.97
2023-05-01T06:33:07.943Z,29.97
2023-05-01T06:35:49.032Z,28.96
2023-05-01T06:38:22.201Z,29.06
2023-05-01T06:41:03.499Z,28.55
2023-05-01T06:43:47.393Z,28.84
2023-05-01T06:46:29.481Z,28.36
2023-05-01T06:49:15.663Z,29.06
2023-05-01T06:51:52.979Z,28.89
2023-05-01T06:54:26.720Z,27.76
2023-05-01T07:00:24.980Z,26.31
2023-05-01T07:02:57.912Z,26.87
2023-05-01T07:05:31.035Z,26.76
2023-05-01T07:08:07.825Z,26.71
2023-05-01T07:10:41.921Z,26.44
2023-05-01T07:13:12.709Z,25.97
2023-05-01T07:15:42.994Z,25.64
2023-05-01T07:18:17.237Z,25.22
2023-05-01T07:20:47.392Z,25.66
2023-05-01T07:23:17.460Z,25.57
2023-05-01T07:25:48.107Z,25.66
2023-05-01T07:28:18.277Z,24.91
2023-05-01T07:30:48.284Z,24.61
2023-05-01T07:33:21.116Z,25.15
2023-05-01T07:35:51.560Z,24.99
2023-05-01T07:38:26.467Z,25.06
2023-05-01T07:40:57.207Z,25.23
2023-05-01T07:43:27.324Z,24.63
2023-05-01T07:46:00.505Z,24.02
2023-05-01T07:48:35.594Z,24.34
2023-05-01T07:51:09.365Z,23.80
2023-05-01T07:53:40.908Z,23.75
2023-05-01T07:56:11.852Z,23.61
2023-05-01T07:58:42.780Z,23.62
2023-05-01T08:01:13.047Z,24.03
2023-05-01T08:03:46.925Z,24.57
2023-05-01T08:06:18.182Z,25.09
2023-05-01T08:08:48.253Z,24.67
2023-05-01T08:11:18.428Z,24.19
2023-05-01T08:13:48.482Z,24.58
2023-05-01T08:16:22.010Z,24.27
2023-05-01T08:18:54.881Z,23.07
2023-05-01T08:21:24.858Z,22.86
2023-05-01T08:23:54.900Z,23.08
2023-05-01T08:26:29.092Z,22.31
2023-05-01T08:29:01.972Z,22.53
2023-05-01T08:31:32.105Z,22.12
2023-05-01T08:34:05.926Z,22.42
2023-05-01T08:36:36.423Z,21.90
2023-05-01T08:39:07.021Z,21.38
2023-05-01T08:41:52.882Z,21.05
2023-05-01T08:44:34.400Z,21.27
2023-05-01T08:47:17.938Z,20.84
2023-05-01T08:49:56.226Z,22.07
2023-05-01T08:52:30.080Z,21.89
2023-05-01T08:55:08.064Z,22.12
2023-05-01T08:57:42.522Z,20.41
2023-05-01T09:00:22.380Z,21.13
2023-05-01T09:02:58.158Z,20.79
2023-05-01T09:06:05.207Z,19.95
2023-05-01T09:08:35.333Z,19.83
2023-05-01T09:11:06.494Z,19.17
2023-05-01T09:13:36.676Z,19.41
2023-05-01T09:16:09.055Z,19.44
2023-05-01T09:18:40.300Z,19.26
2023-05-01T09:21:13.422Z,19.41
2023-05-01T09:23:43.767Z,19.12
2023-05-01T09:26:42.584Z,20.19
2023-05-01T09:29:18.393Z,19.40
2023-05-01T09:31:53.789Z,18.78
2023-05-01T09:34:27.621Z,18.99
2023-05-01T09:37:02.819Z,18.87
2023-05-01T09:39:32.938Z,19.49
2023-05-01T09:42:12.552Z,20.47
2023-05-01T09:44:53.102Z,18.49
2023-05-01T09:47:32.631Z,17.92
2023-05-01T09:50:03.185Z,18.01
2023-05-01T09:53:16.867Z,17.73
2023-05-01T09:56:10.642Z,16.93
2023-05-01T09:58:55.526Z,16.96
2023-05-01T10:01:53.502Z,18.02
2023-05-01T10:04:40.615Z,17.22
2023-05-01T10:07:28.931Z,16.02
2023-05-01T10:10:38.192Z,16.81
2023-05-01T10:13:51.365Z,16.92
2023-05-01T10:16:33.856Z,17.06
2023-05-01T10:19:04.638Z,17.72
2023-05-01T10:21:35.671Z,17.68
2023-05-01T10:24:07.465Z,17.60
2023-05-01T10:26:40.359Z,17.57
2023-05-01T10:29:11.611Z,17.63
2023-05-01T10:31:42.692Z,17.76
2023-05-01T10:34:15.024Z,18.05
2023-05-01T10:36:49.287Z,17.36
2023-05-01T10:39:36.307Z,17.67
2023-05-01T10:42:14.543Z,16.75
2023-05-01T10:44:48.079Z,16.76
2023-05-01T10:47:49.019Z,17.50
2023-05-01T10:50:19.548Z,16.15
2023-05-01T10:53:19.677Z,15.84
2023-05-01T10:55:51.801Z,16.44
2023-05-01T10:58:54.131Z,15.98
2023-05-01T11:01:34.530Z,15.46
2023-05-01T11:04:08.459Z,16.43
2023-05-01T11:06:39.330Z,16.92
2023-05-01T11:09:40.300Z,16.89
2023-05-01T11:12:14.658Z,16.51
2023-05-01T11:15:08.559Z,15.42
2023-05-01T11:17:53.582Z,15.97
2023-05-01T11:20:53.570Z,14.82
2023-05-01T11:23:26.004Z,15.55
2023-05-01T11:26:06.649Z,16.77
2023-05-01T11:28:37.345Z,17.81
2023-05-01T11:31:08.627Z,18.90
2023-05-01T11:33:41.478Z,19.86
2023-05-01T11:36:11.599Z,19.31
2023-05-01T11:38:42.353Z,19.74
2023-05-01T11:41:14.804Z,19.86
2023-05-01T11:43:53.448Z,19.16
2023-05-01T11:46:30.500Z,18.40
2023-05-01T11:49:06.814Z,17.52
2023-05-01T11:51:36.825Z,17.92
2023-05-01T11:54:08.355Z,18.04
2023-05-01T11:56:41.133Z,17.61
2023-05-01T11:59:16.291Z,15.83
2023-05-01T12:01:47.548Z,14.70
2023-05-01T12:04:31.682Z,13.95
2023-05-01T12:07:05.054Z,12.13
2023-05-01T12:09:35.943Z,12.43
2023-05-01T12:12:06.252Z,12.54
2023-05-01T12:14:36.584Z,11.81
2023-05-01T12:17:07.337Z,11.34
2023-05-01T12:19:51.721Z,10.53
2023-05-01T12:22:22.003Z,10.87
2023-05-01T12:24:54.287Z,11.72
2023-05-01T12:27:24.492Z,12.92
2023-05-01T12:29:55.243Z,13.12
2023-05-01T12:32:34.202Z,12.51
2023-05-01T12:35:16.287Z,13.54
2023-05-01T12:37:51.571Z,13.37
2023-05-01T12:40:23.967Z,13.28
2023-05-01T12:43:03.559Z,13.44
2023-05-01T12:45:33.693Z,14.51
2023-05-01T12:48:13.311Z,15.01
2023-05-01T12:50:48.109Z,14.56
2023-05-01T12:53:24.265Z,15.11
2023-05-01T12:55:56.782Z,14.62
2023-05-01T12:58:38.781Z,14.30
2023-05-01T13:01:09.718Z,14.24
2023-05-01T13:03:47.792Z,13.91
2023-05-01T13:06:25.105Z,13.65
2023-05-01T13:08:56.012Z,13.13
2023-05-01T13:11:29.517Z,12.89
2023-05-01T13:14:10.661Z,13.57
2023-05-01T13:16:48.962Z,13.64
2023-05-01T13:19:29.080Z,13.66
2023-05-01T13:22:02.071Z,13.69
2023-05-01T13:24:41.068Z,14.25
2023-05-01T13:27:12.181Z,13.95
2023-05-01T13:29:47.552Z,13.73
2023-05-01T13:32:20.874Z,13.49
2023-05-01T13:34:51.095Z,13.45
2023-05-01T13:37:26.320Z,13.81
2023-05-01T13:40:01.321Z,14.25
2023-05-01T13:42:38.426Z,14.93
2023-05-01T13:45:09.997Z,14.77
2023-05-01T13:47:43.315Z,16.00
2023-05-01T13:50:23.365Z,16.15
2023-05-01T13:52:56.257Z,17.71
2023-05-01T13:55:33.614Z,19.50
2023-05-01T13:58:08.275Z,19.19
2023-05-01T14:00:43.083Z,19.40
2023-05-01T14:03:14.008Z,19.78
2023-05-01T14:05:48.128Z,20.37
2023-05-01T14:08:24.039Z,20.22
2023-05-01T14:10:54.539Z,20.67
2023-05-01T14:13:31.336Z,20.97
2023-05-01T14:16:01.617Z,20.31
2023-05-01T14:18:32.741Z,20.32
2023-05-01T14:21:02.926Z,21.00
2023-05-01T14:23:39.013Z,20.91
2023-05-01T14:26:13.660Z,20.53
2023-05-01T14:28:46.401Z,20.73
2023-05-01T14:31:20.381Z,20.33
2023-05-01T14:33:57.645Z,20.22
2023-05-01T14:36:28.820Z,20.65
2023-05-01T14:39:03.079Z,20.53
2023-05-01T14:41:38.286Z,21.25
2023-05-01T14:44:10.310Z,21.13
2023-05-01T14:46:51.514Z,21.22
2023-05-01T14:49:24.561Z,20.59
2023-05-01T14:51:57.545Z,21.02
2023-05-01T14:57:03.964Z,21.50
2023-05-01T14:59:39.652Z,21.41
2023-05-01T15:02:13.192Z,21.60
2023-05-01T15:04:46.382Z,21.78
2023-05-01T15:07:16.942Z,21.78
2023-05-01T15:09:49.896Z,21.54
2023-05-01T15:12:20.092Z,21.60
2023-05-01T15:14:50.260Z,21.85
2023-05-01T15:17:20.433Z,22.30
2023-05-01T15:19:50.705Z,22.39
2023-05-01T15:22:20.935Z,22.17
2023-05-01T15:24:53.689Z,21.91
2023-05-01T15:27:24.078Z,22.19
2023-05-01T15:29:54.541Z,22.17
2023-05-01T15:32:24.799Z,22.39
2023-05-01T15:34:57.617Z,22.32
2023-05-01T15:37:43.697Z,22.25
2023-05-01T15:40:16.873Z,22.65
2023-05-01T15:42:50.672Z,22.52
2023-05-01T15:45:20.853Z,21.86
2023-05-01T15:47:54.368Z,22.46
2023-05-01T15:50:24.559Z,22.28
2023-05-01T15:53:00.844Z,22.30
2023-05-01T15:55:34.421Z,22.09
2023-05-01T15:58:04.689Z,21.81
2023-05-01T16:00:36.169Z,22.40
2023-05-01T16:03:06.534Z,22.35
2023-05-01T16:05:36.920Z,22.45
2023-05-01T16:08:23.786Z,21.96
2023-05-01T16:10:58.391Z,22.42
2023-05-01T16:13:28.953Z,22.50
2023-05-01T16:16:00.362Z,22.26
2023-05-01T16:18:30.534Z,22.40
2023-05-01T16:21:01.141Z,23.03
2023-05-01T16:23:31.392Z,22.49
2023-05-01T16:26:04.078Z,22.65
2023-05-01T16:28:55.068Z,22.25
2023-05-01T16:31:27.788Z,22.56
2023-05-01T16:33:58.375Z,22.69
2023-05-01T16:36:28.663Z,22.75
2023-05-01T16:38:59.871Z,23.45
2023-05-01T16:41:32.722Z,23.49
2023-05-01T16:44:02.860Z,23.85
2023-05-01T16:46:33.966Z,23.64
2023-05-01T16:49:05.926Z,23.52
2023-05-01T16:51:37.068Z,23.17
2023-05-01T16:54:07.659Z,23.22
2023-05-01T16:56:40.982Z,23.42
2023-05-01T16:59:11.274Z,23.27
2023-05-01T17:01:44.256Z,24.01
2023-05-01T17:04:16.321Z,24.16
2023-05-01T17:06:46.851Z,24.15
2023-05-01T17:09:17.600Z,24.13
2023-05-01T17:12:00.667Z,23.89
2023-05-01T17:14:31.662Z,24.13
2023-05-01T17:17:02.396Z,24.55
2023-05-01T17:19:35.732Z,24.53
2023-05-01T17:22:05.910Z,24.48
2023-05-01T17:24:38.738Z,24.46
2023-05-01T17:27:12.456Z,24.77
2023-05-01T17:29:42.802Z,25.02
2023-05-01T17:32:33.013Z,24.62
2023-05-01T17:35:09.291Z,24.86
2023-05-01T17:37:40.424Z,25.37
2023-05-01T17:40:14.535Z,25.27
2023-05-01T17:42:52.437Z,25.35
2023-05-01T17:45:23.040Z,25.43
2023-05-01T17:47:58.552Z,25.52
2023-05-01T17:50:28.860Z,25.95
2023-05-01T17:52:59.090Z,26.26
2023-05-01T17:55:29.803Z,26.21
2023-05-01T17:58:07.373Z,26.22
2023-05-01T18:00:37.671Z,26.26
2023-05-01T18:03:09.456Z,26.36
2023-05-01T18:05:42.306Z,26.59
2023-05-01T18:08:16.161Z,27.56
2023-05-01T18:10:47.658Z,28.62
2023-05-01T18:13:28.222Z,29.30
2023-05-01T18:16:01.741Z,29.28
2023-05-01T18:18:32.018Z,27.64
2023-05-01T18:21:02.499Z,29.41
2023-05-01T18:23:33.958Z,28.43
2023-05-01T18:26:04.411Z,28.67
2023-05-01T18:28:39.543Z,27.88
2023-05-01T18:31:09.744Z,28.57
2023-05-01T18:33:41.156Z,28.67
2023-05-01T18:36:11.309Z,27.94
2023-05-01T18:38:43.670Z,29.42
2023-05-01T18:41:13.719Z,30.70
2023-05-01T18:43:53.183Z,29.54
2023-05-01T18:46:25.347Z,29.05
2023-05-01T18:48:55.869Z,31.05
2023-05-01T18:51:25.934Z,31.61
2023-05-01T18:53:56.055Z,32.08
2023-05-01T18:56:27.760Z,32.54
2023-05-01T18:59:00.512Z,32.80
2023-05-01T19:01:31.013Z,32.98
2023-05-01T19:04:01.735Z,31.68
2023-05-01T19:06:33.805Z,32.84
2023-05-01T19:09:06.384Z,32.92
2023-05-01T19:11:36.819Z,33.25
2023-05-01T19:14:10.665Z,33.76
2023-05-01T19:16:40.853Z,33.71
2023-05-01T19:19:11.172Z,33.85
2023-05-01T19:21:46.286Z,34.45
2023-05-01T19:24:16.454Z,34.78
2023-05-01T19:26:46.634Z,34.72
2023-05-01T19:29:19.339Z,35.36
2023-05-01T19:31:49.504Z,35.77
2023-05-01T19:34:19.795Z,35.60
2023-05-01T19:36:49.959Z,36.02
2023-05-01T19:39:23.216Z,36.16
2023-05-01T19:41:54.110Z,36.25
2023-05-01T19:44:27.089Z,36.76
2023-05-01T19:46:57.472Z,36.79
2023-05-01T19:49:27.975Z,37.26
2023-05-01T19:52:01.068Z,37.15
2023-05-01T19:54:31.418Z,36.96
2023-05-01T19:57:06.044Z,37.42
2023-05-01T19:59:41.429Z,37.65
2023-05-01T20:02:12.070Z,37.18
2023-05-01T20:04:42.305Z,37.62
2023-05-01T20:07:12.370Z,37.83
2023-05-01T20:09:42.718Z,36.56
2023-05-01T20:12:12.905Z,37.54
2023-05-01T20:14:47.736Z,37.69
2023-05-01T20:17:18.169Z,38.06
2023-05-01T20:19:48.631Z,37.98
2023-05-01T20:22:18.884Z,37.84
2023-05-01T20:24:49.283Z,38.11
2023-05-01T20:27:19.440Z,38.14
2023-05-01T20:29:52.253Z,38.63
2023-05-01T20:32:22.860Z,38.67
2023-05-01T20:34:55.489Z,38.75
2023-05-01T20:37:25.832Z,39.18
2023-05-01T20:39:56.160Z,39.42
2023-05-01T20:42:28.257Z,39.59
2023-05-01T20:45:05.075Z,39.89
2023-05-01T20:47:37.979Z,39.96
2023-05-01T20:50:08.987Z,40.26
2023-05-01T20:52:40.864Z,40.46
2023-05-01T20:55:12.404Z,40.41
2023-05-01T20:57:45.925Z,40.41
2023-05-01T21:00:21.703Z,40.78
2023-05-01T21:02:53.105Z,40.78
2023-05-01T21:05:26.504Z,41.02
2023-05-01T21:08:01.716Z,40.95
2023-05-01T21:10:35.016Z,41.20
2023-05-01T21:13:07.350Z,41.44
2023-05-01T21:15:46.424Z,41.44
2023-05-01T21:18:18.086Z,41.88
2023-05-01T21:20:52.917Z,41.87
2023-05-01T21:23:28.473Z,42.22
2023-05-01T21:26:05.462Z,42.28
2023-05-01T21:28:41.186Z,42.03
2023-05-01T21:31:22.152Z,41.90
2023-05-01T21:33:55.305Z,41.60
2023-05-01T21:36:25.477Z,41.63
2023-05-01T21:38:55.804Z,41.56
2023-05-01T21:41:26.146Z,41.81
2023-05-01T21:44:00.952Z,41.20
2023-05-01T21:46:33.855Z,41.68
2023-05-01T21:49:04.300Z,41.38
2023-05-01T21:51:37.560Z,41.73
2023-05-01T21:54:10.328Z,41.89
2023-05-01T21:56:40.824Z,42.01
2023-05-01T21:59:10.864Z,40.83
2023-05-01T22:01:44.854Z,40.07
2023-05-01T22:04:20.693Z,41.95
2023-05-01T22:06:51.029Z,41.92
2023-05-01T22:09:21.177Z,41.24
2023-05-01T22:11:51.431Z,41.87
2023-05-01T22:14:27.071Z,40.72
2023-05-01T22:17:05.435Z,41.15
2023-05-01T22:19:35.522Z,42.00
2023-05-01T22:22:05.582Z,42.25
2023-05-01T22:24:36.385Z,42.40
2023-05-01T22:27:06.860Z,42.42
2023-05-01T22:29:36.996Z,42.81
2023-05-01T22:32:10.005Z,42.74
2023-05-01T22:34:40.290Z,42.58
2023-05-01T22:37:12.493Z,42.70
2023-05-01T22:39:42.816Z,42.83
2023-05-01T22:42:13.268Z,42.80
2023-05-01T22:44:43.341Z,43.09
2023-05-01T22:47:16.319Z,42.93
2023-05-01T22:49:46.516Z,42.85
2023-05-01T22:52:16.803Z,43.32
2023-05-01T22:54:47.388Z,42.40
2023-05-01T22:57:17.502Z,42.74
2023-05-01T22:59:48.463Z,42.93
2023-05-01T23:02:21.567Z,42.53
2023-05-01T23:04:52.196Z,42.95
2023-05-01T23:07:22.475Z,42.97
2023-05-01T23:09:53.218Z,43.07
2023-05-01T23:12:25.974Z,42.49
2023-05-01T23:14:56.872Z,42.17
2023-05-01T23:17:36.406Z,42.75
2023-05-01T23:20:10.119Z,43.10
2023-05-01T23:22:41.691Z,42.53
2023-05-01T23:25:16.189Z,42.50
2023-05-01T23:27:50.244Z,42.40
2023-05-01T23:30:23.461Z,42.36
2023-05-01T23:33:01.040Z,43.31
2023-05-01T23:35:31.350Z,43.37
2023-05-01T23:38:01.483Z,43.50
2023-05-01T23:40:31.981Z,43.14
2023-05-01T23:43:02.134Z,43.85
2023-05-01T23:45:32.247Z,43.84
2023-05-01T23:48:05.793Z,44.27
2023-05-01T23:50:37.467Z,44.68
2023-05-01T23:53:09.981Z,44.70
2023-05-01T23:55:43.503Z,44.96
2023-05-01T23:58:14.834Z,44.46
